Darstellungsparameter: Aktuell verwendete Einstellungen:
Skalierung der Graphiken ... ?
xyx+y,   Skalierungsfaktor:      Skalierung: Modus: x, Faktor: 1
Darstellungszeitraum ... ?
Vom - - bis: - -   Zeitraum: 05.12.2013 - 06.12.2013
Min/Max/Avg-Anzeige ... ?
Zeige MMA aktuell
Zeige MMA Monat
Zeige MMA alles
Zeige --A aktuell
Zeige --A Monat
Zeige --A alles
Keine MMA-Anzeige
MMA:
Keine MMA-Graphiken
MMA-Basis: 05.12.2013 - 06.12.2013
Quicknavigation für Darstellung... ?
Tage:      1T, 2T, 3T, 5T -1T -2T -3T -5T +1T +2T +3T +5T
Wochen: 1W, 2W, 3W -1W -2W -3W +1W +2W +3W
Monate: 1M, 3M, 6M -1M -3M -6M +1M +3M +6M
Jahre:    1J, 3J, 5J, 10J -1J -3J -5J -10J +1J +3J +5J +10J
Nutze für die Darstellung ... ?
Originaldaten oder Mittelwerte auf ...
Stundenbasis Tagesbasis Wochenbasis
Monatsbasis Jahresbasis      Datenbasis: Original-Daten
Darstellen als:
Statistik (Auto) Statistik J:M      Darstellung:
Zur Graphik,    zurück zur Übersicht aller Sensoren.
 
Tabellarische Datenbersicht: ?
 
Sensor: Nr:Datum:Temp:Abs-Feuchte:Windchill:Wind:
Aussen-T/F 1 05-12-2013 00:00:00 4.9 C 6.48 g/m*3 4.9 C 3.2 km/h
2 05-12-2013 00:05:00 4.8 C 6.44 g/m*3 4.8 C 4.8 km/h
3 05-12-2013 00:10:00 4.6 C 6.29 g/m*3 4.6 C 1.6 km/h
4 05-12-2013 00:15:00 4.4 C 6.27 g/m*3 4.4 C 1.6 km/h
5 05-12-2013 00:20:00 4.4 C 6.27 g/m*3 4.4 C 1.6 km/h
6 05-12-2013 00:25:00 4.3 C 6.23 g/m*3 4.3 C 3.2 km/h
7 05-12-2013 00:30:00 4.3 C 6.23 g/m*3 4.3 C 1.6 km/h
8 05-12-2013 00:35:00 4.2 C 6.19 g/m*3 4.2 C 0 km/h
9 05-12-2013 00:40:00 4.1 C 6.14 g/m*3 4.1 C 3.2 km/h
10 05-12-2013 00:45:00 3.9 C 6.06 g/m*3 3.9 C 3.2 km/h
11 05-12-2013 00:50:00 3.8 C 6.02 g/m*3 3.8 C 3.2 km/h
12 05-12-2013 00:55:00 3.6 C 5.94 g/m*3 3.6 C 3.2 km/h
13 05-12-2013 01:00:00 3.4 C 5.86 g/m*3 3.4 C 3.2 km/h
14 05-12-2013 01:05:00 3.3 C 5.82 g/m*3 3.3 C 3.2 km/h
15 05-12-2013 01:10:00 3.2 C 5.79 g/m*3 3.2 C 1.6 km/h
16 05-12-2013 01:15:00 3.1 C 5.75 g/m*3 3.1 C 3.2 km/h
17 05-12-2013 01:20:00 3 C 5.71 g/m*3 3 C 3.2 km/h
18 05-12-2013 01:25:00 3 C 5.71 g/m*3 3 C 3.2 km/h
19 05-12-2013 01:30:00 3 C 5.71 g/m*3 3 C 3.2 km/h
20 05-12-2013 01:35:00 2.9 C 5.73 g/m*3 2.9 C 1.6 km/h
21 05-12-2013 01:40:00 2.9 C 5.73 g/m*3 2.9 C 3.2 km/h
22 05-12-2013 01:45:00 2.9 C 5.73 g/m*3 2.9 C 0 km/h
23 05-12-2013 01:50:00 2.8 C 5.69 g/m*3 2.8 C 0 km/h
24 05-12-2013 01:55:00 2.8 C 5.69 g/m*3 2.8 C 0 km/h
25 05-12-2013 02:00:00 2.7 C 5.65 g/m*3 2.7 C 0 km/h
Sensor: Nr:Datum:Temp:Abs-Feuchte:Windchill:Wind:
Aussen-T/F 26 05-12-2013 02:05:00 2.6 C 5.61 g/m*3 2.6 C 1.6 km/h
27 05-12-2013 02:10:00 2.6 C 5.61 g/m*3 2.6 C 1.6 km/h
28 05-12-2013 02:15:00 2.6 C 5.61 g/m*3 2.6 C 3.2 km/h
29 05-12-2013 02:20:00 2.5 C 5.58 g/m*3 2.5 C 1.6 km/h
30 05-12-2013 02:25:00 2.4 C 5.54 g/m*3 2.4 C 1.6 km/h
31 05-12-2013 02:30:00 2.4 C 5.54 g/m*3 2.4 C 3.2 km/h
32 05-12-2013 02:35:00 2.3 C 5.5 g/m*3 2.3 C 1.6 km/h
33 05-12-2013 02:40:00 2.3 C 5.5 g/m*3 2.3 C 0 km/h
34 05-12-2013 02:45:00 2.3 C 5.5 g/m*3 2.3 C 3.2 km/h
35 05-12-2013 02:50:00 2.3 C 5.5 g/m*3 2.3 C 0 km/h
36 05-12-2013 02:55:00 2.3 C 5.5 g/m*3 2.3 C 3.2 km/h
37 05-12-2013 03:00:00 2.2 C 5.46 g/m*3 2.2 C 1.6 km/h
38 05-12-2013 03:05:00 2.3 C 5.5 g/m*3 2.3 C 1.6 km/h
39 05-12-2013 03:10:00 2.3 C 5.5 g/m*3 2.3 C 1.6 km/h
40 05-12-2013 03:15:00 2.3 C 5.5 g/m*3 2.3 C 3.2 km/h
41 05-12-2013 03:20:00 2.3 C 5.5 g/m*3 2.3 C 3.2 km/h
42 05-12-2013 03:25:00 2.2 C 5.46 g/m*3 0.36 C 6.4 km/h
43 05-12-2013 03:30:00 2.2 C 5.46 g/m*3 0.36 C 6.4 km/h
44 05-12-2013 03:35:00 2.3 C 5.5 g/m*3 0.47 C 6.4 km/h
45 05-12-2013 03:40:00 2.3 C 5.5 g/m*3 2.3 C 3.2 km/h
46 05-12-2013 03:45:00 2.3 C 5.5 g/m*3 0.47 C 6.4 km/h
47 05-12-2013 03:50:00 2.3 C 5.5 g/m*3 0.47 C 6.4 km/h
48 05-12-2013 03:55:00 2.3 C 5.5 g/m*3 -0.49 C 9.7 km/h
49 05-12-2013 04:00:00 2.3 C 5.5 g/m*3 -0.07 C 8.1 km/h
50 05-12-2013 04:05:00 2.3 C 5.5 g/m*3 0.47 C 6.4 km/h
Sensor: Nr:Datum:Temp:Abs-Feuchte:Windchill:Wind:
Aussen-T/F 51 05-12-2013 04:10:00 2.2 C 5.46 g/m*3 0.36 C 6.4 km/h
52 05-12-2013 04:15:00 2.3 C 5.5 g/m*3 -0.07 C 8.1 km/h
53 05-12-2013 04:20:00 2.3 C 5.5 g/m*3 0.47 C 6.4 km/h
54 05-12-2013 04:25:00 2.3 C 5.5 g/m*3 -0.07 C 8.1 km/h
55 05-12-2013 04:30:00 2.2 C 5.46 g/m*3 -0.18 C 8.1 km/h
56 05-12-2013 04:35:00 2.2 C 5.46 g/m*3 -0.61 C 9.7 km/h
57 05-12-2013 04:40:00 2.2 C 5.46 g/m*3 0.36 C 6.4 km/h
58 05-12-2013 04:45:00 2.2 C 5.46 g/m*3 -0.61 C 9.7 km/h
59 05-12-2013 04:50:00 2.2 C 5.46 g/m*3 -0.99 C 11.3 km/h
60 05-12-2013 04:55:00 2.2 C 5.46 g/m*3 -0.99 C 11.3 km/h
61 05-12-2013 05:00:00 2.2 C 5.46 g/m*3 -0.99 C 11.3 km/h
62 05-12-2013 05:05:00 2.2 C 5.46 g/m*3 -0.61 C 9.7 km/h
63 05-12-2013 05:10:00 2.2 C 5.46 g/m*3 -0.18 C 8.1 km/h
64 05-12-2013 05:15:00 2.2 C 5.46 g/m*3 -0.61 C 9.7 km/h
65 05-12-2013 05:20:00 2.1 C 5.43 g/m*3 0.24 C 6.4 km/h
66 05-12-2013 05:25:00 2.1 C 5.43 g/m*3 0.24 C 6.4 km/h
67 05-12-2013 05:30:00 2.1 C 5.43 g/m*3 2.1 C 4.8 km/h
68 05-12-2013 05:35:00 2.1 C 5.43 g/m*3 -0.73 C 9.7 km/h
69 05-12-2013 05:40:00 2.1 C 5.43 g/m*3 2.1 C 3.2 km/h
70 05-12-2013 05:45:00 2.2 C 5.46 g/m*3 -0.18 C 8.1 km/h
71 05-12-2013 05:50:00 2.2 C 5.46 g/m*3 -0.18 C 8.1 km/h
72 05-12-2013 05:55:00 2.2 C 5.46 g/m*3 0.36 C 6.4 km/h
73 05-12-2013 06:00:00 2.2 C 5.46 g/m*3 0.36 C 6.4 km/h
74 05-12-2013 06:05:00 2.2 C 5.46 g/m*3 0.36 C 6.4 km/h
75 05-12-2013 06:10:00 2.2 C 5.46 g/m*3 -0.61 C 9.7 km/h
Sensor: Nr:Datum:Temp:Abs-Feuchte:Windchill:Wind:
Aussen-T/F 76 05-12-2013 06:15:00 2.3 C 5.5 g/m*3 -0.07 C 8.1 km/h
77 05-12-2013 06:20:00 2.3 C 5.5 g/m*3 -0.07 C 8.1 km/h
78 05-12-2013 06:25:00 2.3 C 5.5 g/m*3 -0.07 C 8.1 km/h
79 05-12-2013 06:30:00 2.4 C 5.54 g/m*3 2.4 C 4.8 km/h
80 05-12-2013 06:35:00 2.5 C 5.58 g/m*3 0.71 C 6.4 km/h
81 05-12-2013 06:40:00 2.6 C 5.61 g/m*3 2.6 C 4.8 km/h
82 05-12-2013 06:45:00 2.6 C 5.61 g/m*3 0.82 C 6.4 km/h
83 05-12-2013 06:50:00 2.6 C 5.56 g/m*3 0.82 C 6.4 km/h
84 05-12-2013 06:55:00 2.6 C 5.56 g/m*3 -0.14 C 9.7 km/h
85 05-12-2013 07:00:00 2.6 C 5.56 g/m*3 -0.5 C 11.3 km/h
86 05-12-2013 07:05:00 2.6 C 5.56 g/m*3 -0.83 C 12.9 km/h
87 05-12-2013 07:10:00 2.4 C 5.48 g/m*3 -1.07 C 12.9 km/h
88 05-12-2013 07:15:00 2.4 C 5.48 g/m*3 -0.37 C 9.7 km/h
89 05-12-2013 07:20:00 2.4 C 5.48 g/m*3 -0.37 C 9.7 km/h
90 05-12-2013 07:28:00 2.3 C 5.44 g/m*3 0.47 C 6.4 km/h
91 05-12-2013 07:30:00 2.2 C 5.41 g/m*3 2.2 C 0 km/h
92 05-12-2013 07:35:00 2.1 C 5.31 g/m*3 2.1 C 4.8 km/h
93 05-12-2013 07:56:00 2.1 C 5.31 g/m*3 2.1 C 1.6 km/h
94 05-12-2013 08:00:00 1.7 C 5.17 g/m*3 1.7 C 4.8 km/h
95 05-12-2013 08:05:00 1.6 C 5.14 g/m*3 -1.33 C 9.7 km/h
96 05-12-2013 08:10:00 1.6 C 5.14 g/m*3 1.6 C 4.8 km/h
97 05-12-2013 08:15:00 1.4 C 5.07 g/m*3 1.4 C 3.2 km/h
98 05-12-2013 08:20:00 1.4 C 5.07 g/m*3 1.4 C 4.8 km/h
99 05-12-2013 08:25:00 1.2 C 5 g/m*3 1.2 C 3.2 km/h
100 05-12-2013 08:30:00 1.2 C 5.05 g/m*3 1.2 C 4.8 km/h
Sensor: Nr:Datum:Temp:Abs-Feuchte:Windchill:Wind:
Aussen-T/F 101 05-12-2013 08:35:00 1.3 C 5.09 g/m*3 1.3 C 3.2 km/h
102 05-12-2013 08:40:00 1.4 C 5.12 g/m*3 1.4 C 4.8 km/h
103 05-12-2013 08:45:00 1.4 C 5.12 g/m*3 -1.12 C 8.1 km/h
104 05-12-2013 08:50:00 1.4 C 5.12 g/m*3 1.4 C 3.2 km/h
105 05-12-2013 08:55:00 1.4 C 5.12 g/m*3 1.4 C 3.2 km/h
106 05-12-2013 09:00:00 1.6 C 5.19 g/m*3 -0.89 C 8.1 km/h
107 05-12-2013 09:05:00 1.7 C 5.23 g/m*3 1.7 C 4.8 km/h
108 05-12-2013 09:10:00 1.9 C 5.3 g/m*3 1.9 C 4.8 km/h
109 05-12-2013 09:15:00 2 C 5.33 g/m*3 2 C 4.8 km/h
110 05-12-2013 09:20:00 2.2 C 5.41 g/m*3 0.36 C 6.4 km/h
111 05-12-2013 09:25:00 2.3 C 5.44 g/m*3 0.47 C 6.4 km/h
112 05-12-2013 09:30:00 2.4 C 5.42 g/m*3 0.59 C 6.4 km/h
113 05-12-2013 09:35:00 2.5 C 5.46 g/m*3 -0.26 C 9.7 km/h
114 05-12-2013 09:40:00 2.6 C 5.5 g/m*3 -0.14 C 9.7 km/h
115 05-12-2013 09:45:00 2.7 C 5.48 g/m*3 -0.71 C 12.9 km/h
116 05-12-2013 09:50:00 2.8 C 5.46 g/m*3 -1.14 C 16.1 km/h
117 05-12-2013 09:55:00 3 C 5.53 g/m*3 -0.34 C 12.9 km/h
118 05-12-2013 10:00:00 3.1 C 5.57 g/m*3 -0.22 C 12.9 km/h
119 05-12-2013 10:05:00 3.2 C 5.54 g/m*3 0.58 C 9.7 km/h
120 05-12-2013 10:10:00 3.3 C 5.64 g/m*3 1.63 C 6.4 km/h
121 05-12-2013 10:15:00 3.3 C 5.64 g/m*3 0.7 C 9.7 km/h
122 05-12-2013 10:20:00 3.4 C 5.62 g/m*3 0.46 C 11.3 km/h
123 05-12-2013 10:25:00 3.3 C 5.58 g/m*3 -0.26 C 14.5 km/h
124 05-12-2013 10:30:00 3.3 C 5.58 g/m*3 0.7 C 9.7 km/h
125 05-12-2013 10:35:00 3.3 C 5.58 g/m*3 3.3 C 4.8 km/h
Sensor: Nr:Datum:Temp:Abs-Feuchte:Windchill:Wind:
Aussen-T/F 126 05-12-2013 10:40:00 3.3 C 5.64 g/m*3 1.63 C 6.4 km/h
127 05-12-2013 10:45:00 3.4 C 5.62 g/m*3 0.46 C 11.3 km/h
128 05-12-2013 10:50:00 3.4 C 5.62 g/m*3 0.82 C 9.7 km/h
129 05-12-2013 10:55:00 3.5 C 5.66 g/m*3 0.94 C 9.7 km/h
130 05-12-2013 11:00:00 3.6 C 5.69 g/m*3 1.06 C 9.7 km/h
131 05-12-2013 11:05:00 3.6 C 5.63 g/m*3 0.7 C 11.3 km/h
132 05-12-2013 11:10:00 3.7 C 5.67 g/m*3 1.18 C 9.7 km/h
133 05-12-2013 11:15:00 3.7 C 5.67 g/m*3 1.58 C 8.1 km/h
134 05-12-2013 11:20:00 3.8 C 5.65 g/m*3 0.94 C 11.3 km/h
135 05-12-2013 11:25:00 3.8 C 5.65 g/m*3 0.35 C 14.5 km/h
136 05-12-2013 11:30:00 3.9 C 5.62 g/m*3 0.22 C 16.1 km/h
137 05-12-2013 11:35:00 3.9 C 5.62 g/m*3 0.75 C 12.9 km/h
138 05-12-2013 11:40:00 3.9 C 5.62 g/m*3 -0.23 C 19.3 km/h
139 05-12-2013 11:45:00 4 C 5.59 g/m*3 0.6 C 14.5 km/h
140 05-12-2013 11:50:00 3.9 C 5.56 g/m*3 0.22 C 16.1 km/h
141 05-12-2013 11:55:00 4 C 5.59 g/m*3 -0.31 C 20.9 km/h
142 05-12-2013 12:00:00 4 C 5.59 g/m*3 -0.31 C 20.9 km/h
143 05-12-2013 12:05:00 4 C 5.59 g/m*3 0.34 C 16.1 km/h
144 05-12-2013 12:10:00 4 C 5.53 g/m*3 0.34 C 16.1 km/h
145 05-12-2013 12:15:00 4 C 5.47 g/m*3 0.34 C 16.1 km/h
146 05-12-2013 12:20:00 3.9 C 5.43 g/m*3 -0.97 C 25.7 km/h
147 05-12-2013 12:25:00 3.8 C 5.4 g/m*3 -0.56 C 20.9 km/h
148 05-12-2013 12:30:00 3.8 C 5.33 g/m*3 -0.56 C 20.9 km/h
149 05-12-2013 12:35:00 3.8 C 5.33 g/m*3 -0.56 C 20.9 km/h
150 05-12-2013 12:40:00 3.9 C 5.37 g/m*3 0.47 C 14.5 km/h
Sensor: Nr:Datum:Temp:Abs-Feuchte:Windchill:Wind:
Aussen-T/F 151 05-12-2013 12:45:00 3.9 C 5.31 g/m*3 0.47 C 14.5 km/h
152 05-12-2013 12:50:00 4 C 5.34 g/m*3 0.11 C 17.7 km/h
153 05-12-2013 12:55:00 4 C 5.34 g/m*3 0.11 C 17.7 km/h
154 05-12-2013 13:00:00 4.1 C 5.44 g/m*3 0.72 C 14.5 km/h
155 05-12-2013 13:05:00 4.1 C 5.38 g/m*3 -0.55 C 24.1 km/h
156 05-12-2013 13:10:00 4.1 C 5.38 g/m*3 1 C 12.9 km/h
157 05-12-2013 13:15:00 4.1 C 5.38 g/m*3 1 C 12.9 km/h
158 05-12-2013 13:20:00 4.1 C 5.31 g/m*3 1 C 12.9 km/h
159 05-12-2013 13:25:00 4.1 C 5.31 g/m*3 1.31 C 11.3 km/h
160 05-12-2013 13:30:00 4.2 C 5.35 g/m*3 0.36 C 17.7 km/h
161 05-12-2013 13:35:00 4.2 C 5.28 g/m*3 0.15 C 19.3 km/h
162 05-12-2013 13:40:00 4.2 C 5.28 g/m*3 0.36 C 17.7 km/h
163 05-12-2013 13:45:00 4.3 C 5.25 g/m*3 0.97 C 14.5 km/h
164 05-12-2013 13:50:00 4.3 C 5.25 g/m*3 0.49 C 17.7 km/h
165 05-12-2013 13:55:00 4.4 C 5.35 g/m*3 0.84 C 16.1 km/h
166 05-12-2013 14:00:00 4.4 C 5.29 g/m*3 1.67 C 11.3 km/h
167 05-12-2013 14:05:00 4.4 C 5.29 g/m*3 0.4 C 19.3 km/h
168 05-12-2013 14:10:00 4.4 C 5.29 g/m*3 -0.16 C 24.1 km/h
169 05-12-2013 14:15:00 4.5 C 5.32 g/m*3 -0.03 C 24.1 km/h
170 05-12-2013 14:20:00 4.5 C 5.32 g/m*3 0.14 C 22.5 km/h
171 05-12-2013 14:25:00 4.6 C 5.36 g/m*3 0.86 C 17.7 km/h
172 05-12-2013 14:30:00 4.6 C 5.36 g/m*3 0.45 C 20.9 km/h
173 05-12-2013 14:35:00 4.6 C 5.29 g/m*3 1.09 C 16.1 km/h
174 05-12-2013 14:40:00 4.6 C 5.36 g/m*3 1.91 C 11.3 km/h
175 05-12-2013 14:45:00 4.7 C 5.4 g/m*3 1.46 C 14.5 km/h
Sensor: Nr:Datum:Temp:Abs-Feuchte:Windchill:Wind:
Aussen-T/F 176 05-12-2013 14:50:00 4.7 C 5.33 g/m*3 1.21 C 16.1 km/h
177 05-12-2013 14:55:00 4.8 C 5.36 g/m*3 2.15 C 11.3 km/h
178 05-12-2013 15:00:00 4.8 C 5.3 g/m*3 0.9 C 19.3 km/h
179 05-12-2013 15:05:00 4.9 C 5.33 g/m*3 0.83 C 20.9 km/h
180 05-12-2013 15:10:00 4.9 C 5.33 g/m*3 0.15 C 27.4 km/h
181 05-12-2013 15:15:00 5 C 5.3 g/m*3 0.45 C 25.7 km/h
182 05-12-2013 15:20:00 5.1 C 5.34 g/m*3 0.27 C 29 km/h
183 05-12-2013 15:25:00 5.1 C 5.27 g/m*3 0.91 C 22.5 km/h
184 05-12-2013 15:30:00 5.2 C 5.23 g/m*3 0.4 C 29 km/h
185 05-12-2013 15:35:00 5.2 C 5.23 g/m*3 0.4 C 29 km/h
186 05-12-2013 15:40:00 5.3 C 5.2 g/m*3 0.67 C 27.4 km/h
187 05-12-2013 15:45:00 5.3 C 5.13 g/m*3 0.26 C 32.2 km/h
188 05-12-2013 15:50:00 5.4 C 5.16 g/m*3 0.66 C 29 km/h
189 05-12-2013 15:55:00 5.4 C 5.09 g/m*3 0.27 C 33.8 km/h
190 05-12-2013 16:00:00 5.4 C 5.09 g/m*3 0.27 C 33.8 km/h
191 05-12-2013 16:05:00 5.4 C 5.02 g/m*3 0.96 C 25.7 km/h
192 05-12-2013 16:10:00 5.4 C 5.02 g/m*3 1.12 C 24.1 km/h
193 05-12-2013 16:15:00 5.5 C 4.99 g/m*3 0.65 C 30.6 km/h
194 05-12-2013 16:20:00 5.6 C 5.02 g/m*3 0.53 C 33.8 km/h
195 05-12-2013 16:25:00 5.6 C 4.95 g/m*3 0.92 C 29 km/h
196 05-12-2013 16:30:00 5.6 C 5.02 g/m*3 1.22 C 25.7 km/h
197 05-12-2013 16:35:00 5.6 C 5.02 g/m*3 0.78 C 30.6 km/h
198 05-12-2013 16:40:00 5.6 C 5.09 g/m*3 0.92 C 29 km/h
199 05-12-2013 16:45:00 5.5 C 5.06 g/m*3 0.65 C 30.6 km/h
200 05-12-2013 16:50:00 5.5 C 5.06 g/m*3 0.4 C 33.8 km/h
Sensor: Nr:Datum:Temp:Abs-Feuchte:Windchill:Wind:
Aussen-T/F 201 05-12-2013 16:55:00 5.4 C 5.02 g/m*3 1.66 C 19.3 km/h
202 05-12-2013 17:00:00 5.4 C 5.09 g/m*3 1.66 C 19.3 km/h
203 05-12-2013 17:05:00 5.4 C 5.16 g/m*3 1.66 C 19.3 km/h
204 05-12-2013 17:10:00 5.4 C 5.16 g/m*3 2.32 C 14.5 km/h
205 05-12-2013 17:15:00 5.4 C 5.16 g/m*3 1.29 C 22.5 km/h
206 05-12-2013 17:38:00 5.4 C 5.16 g/m*3 1.12 C 24.1 km/h
207 05-12-2013 17:40:00 5.6 C 5.3 g/m*3 2.11 C 17.7 km/h
208 05-12-2013 17:45:00 5.6 C 5.37 g/m*3 0.92 C 29 km/h
209 05-12-2013 17:50:00 5.7 C 5.48 g/m*3 0.21 C 40.2 km/h
210 05-12-2013 17:55:00 5.7 C 5.48 g/m*3 0.21 C 40.2 km/h
211 05-12-2013 18:00:00 5.7 C 5.55 g/m*3 1.05 C 29 km/h
212 05-12-2013 18:05:00 5.6 C 5.59 g/m*3 1.06 C 27.4 km/h
213 05-12-2013 18:10:00 5.5 C 5.62 g/m*3 1.09 C 25.7 km/h
214 05-12-2013 18:15:00 5.4 C 5.72 g/m*3 0.39 C 32.2 km/h
215 05-12-2013 18:20:00 5.3 C 5.75 g/m*3 1.16 C 22.5 km/h
216 05-12-2013 18:25:00 5.3 C 5.68 g/m*3 0.83 C 25.7 km/h
217 05-12-2013 18:30:00 5.4 C 5.72 g/m*3 1.29 C 22.5 km/h
218 05-12-2013 18:35:00 5.6 C 5.73 g/m*3 1.38 C 24.1 km/h
219 05-12-2013 18:40:00 5.7 C 5.76 g/m*3 0.66 C 33.8 km/h
220 05-12-2013 18:45:00 5.7 C 5.76 g/m*3 2.03 C 19.3 km/h
221 05-12-2013 18:50:00 5.6 C 5.8 g/m*3 1.06 C 27.4 km/h
222 05-12-2013 18:55:00 5.6 C 5.8 g/m*3 1.06 C 27.4 km/h
223 05-12-2013 19:00:00 5.6 C 5.87 g/m*3 1.06 C 27.4 km/h
224 05-12-2013 19:05:00 5.5 C 5.83 g/m*3 0.93 C 27.4 km/h
225 05-12-2013 19:10:00 5.4 C 5.86 g/m*3 0.66 C 29 km/h
Sensor: Nr:Datum:Temp:Abs-Feuchte:Windchill:Wind:
Aussen-T/F 226 05-12-2013 19:15:00 5.4 C 5.93 g/m*3 0.52 C 30.6 km/h
227 05-12-2013 19:20:00 5.3 C 5.96 g/m*3 1.53 C 19.3 km/h
228 05-12-2013 19:25:00 5.2 C 5.99 g/m*3 0.4 C 29 km/h
229 05-12-2013 19:30:00 5.2 C 5.99 g/m*3 0.86 C 24.1 km/h
230 05-12-2013 19:35:00 5.2 C 6.06 g/m*3 0.86 C 24.1 km/h
231 05-12-2013 19:40:00 5.1 C 6.02 g/m*3 1.28 C 19.3 km/h
232 05-12-2013 19:45:00 5.1 C 6.02 g/m*3 0.27 C 29 km/h
233 05-12-2013 19:50:00 5.1 C 6.02 g/m*3 0.74 C 24.1 km/h
234 05-12-2013 19:55:00 5.1 C 6.02 g/m*3 0 C 32.2 km/h
235 05-12-2013 20:00:00 5.2 C 6.06 g/m*3 1.21 C 20.9 km/h
236 05-12-2013 20:05:00 5.3 C 6.03 g/m*3 0.83 C 25.7 km/h
237 05-12-2013 20:10:00 5.3 C 6.03 g/m*3 1.16 C 22.5 km/h
238 05-12-2013 20:15:00 5.3 C 6.1 g/m*3 1.53 C 19.3 km/h
239 05-12-2013 20:20:00 5.2 C 6.13 g/m*3 2.34 C 12.9 km/h
240 05-12-2013 20:25:00 5.1 C 6.16 g/m*3 1.28 C 19.3 km/h
241 05-12-2013 20:30:00 5 C 6.18 g/m*3 0.78 C 22.5 km/h
242 05-12-2013 20:35:00 4.9 C 6.14 g/m*3 0.32 C 25.7 km/h
243 05-12-2013 20:40:00 5.1 C 6.29 g/m*3 0.74 C 24.1 km/h
244 05-12-2013 20:45:00 5.2 C 6.27 g/m*3 1.61 C 17.7 km/h
245 05-12-2013 20:50:00 5.3 C 6.31 g/m*3 1.16 C 22.5 km/h
246 05-12-2013 20:55:00 5.6 C 6.29 g/m*3 1.91 C 19.3 km/h
247 05-12-2013 21:00:00 5.8 C 6.3 g/m*3 2.58 C 16.1 km/h
248 05-12-2013 21:05:00 5.9 C 6.27 g/m*3 2.93 C 14.5 km/h
249 05-12-2013 21:10:00 6.3 C 6.29 g/m*3 2.98 C 17.7 km/h
250 05-12-2013 21:15:00 6.7 C 6.23 g/m*3 3.69 C 16.1 km/h
Sensor: Nr:Datum:Temp:Abs-Feuchte:Windchill:Wind:
Aussen-T/F 251 05-12-2013 21:20:00 7.1 C 6.24 g/m*3 3 C 27.4 km/h
252 05-12-2013 21:25:00 7.4 C 6.04 g/m*3 3.14 C 30.6 km/h
253 05-12-2013 21:30:00 7.5 C 5.92 g/m*3 3.96 C 22.5 km/h
254 05-12-2013 21:35:00 7.6 C 5.72 g/m*3 3.52 C 29 km/h
255 05-12-2013 21:40:00 7.5 C 5.76 g/m*3 3.81 C 24.1 km/h
256 05-12-2013 21:45:00 7.3 C 5.77 g/m*3 4.9 C 12.9 km/h
257 05-12-2013 21:50:00 7.1 C 5.85 g/m*3 3.8 C 19.3 km/h
258 05-12-2013 21:55:00 6.8 C 5.74 g/m*3 3.42 C 19.3 km/h
259 05-12-2013 22:00:00 6.7 C 5.7 g/m*3 2.94 C 22.5 km/h
260 05-12-2013 22:05:00 6.6 C 5.44 g/m*3 3.36 C 17.7 km/h
261 05-12-2013 22:10:00 6.6 C 5.36 g/m*3 3.57 C 16.1 km/h
262 05-12-2013 22:15:00 6.6 C 5.36 g/m*3 3.57 C 16.1 km/h
263 05-12-2013 22:20:00 6.6 C 5.28 g/m*3 3.57 C 16.1 km/h
264 05-12-2013 22:25:00 6.5 C 5.7 g/m*3 1.84 C 32.2 km/h
265 05-12-2013 22:30:00 5.8 C 5.66 g/m*3 1.32 C 27.4 km/h
266 05-12-2013 22:35:00 5.1 C 5.54 g/m*3 1.71 C 16.1 km/h
267 05-12-2013 22:40:00 4.8 C 5.57 g/m*3 2.15 C 11.3 km/h
268 05-12-2013 22:45:00 4.6 C 5.56 g/m*3 2.64 C 8.1 km/h
269 05-12-2013 22:50:00 4.3 C 5.51 g/m*3 4.3 C 4.8 km/h
270 05-12-2013 22:55:00 4.3 C 5.32 g/m*3 0.72 C 16.1 km/h
271 05-12-2013 23:00:00 4.7 C 5.33 g/m*3 1.21 C 16.1 km/h
272 05-12-2013 23:05:00 5.1 C 5.2 g/m*3 1.09 C 20.9 km/h
273 05-12-2013 23:10:00 5.4 C 5.23 g/m*3 2.87 C 11.3 km/h
274 05-12-2013 23:15:00 5.6 C 5.3 g/m*3 3.44 C 9.7 km/h
275 05-12-2013 23:20:00 5.7 C 5.27 g/m*3 2.95 C 12.9 km/h
Sensor: Nr:Datum:Temp:Abs-Feuchte:Windchill:Wind:
Aussen-T/F 276 05-12-2013 23:25:00 5.7 C 5.27 g/m*3 3.93 C 8.1 km/h
277 05-12-2013 23:30:00 5.7 C 5.27 g/m*3 2.69 C 14.5 km/h
278 05-12-2013 23:35:00 5.6 C 5.51 g/m*3 1.38 C 24.1 km/h
279 05-12-2013 23:40:00 4.9 C 5.4 g/m*3 0.83 C 20.9 km/h
280 05-12-2013 23:45:00 4.1 C 5.44 g/m*3 -1.45 C 33.8 km/h
281 05-12-2013 23:50:00 3.6 C 5.39 g/m*3 -0.15 C 16.1 km/h
282 05-12-2013 23:55:00 3.3 C 5.34 g/m*3 -0.26 C 14.5 km/h
283 06-12-2013 00:00:00 3.2 C 5.36 g/m*3 -0.39 C 14.5 km/h
284 06-12-2013 00:05:00 3.2 C 5.36 g/m*3 -0.89 C 17.7 km/h
285 06-12-2013 00:10:00 3.2 C 5.36 g/m*3 -0.89 C 17.7 km/h
286 06-12-2013 00:15:00 3.2 C 5.36 g/m*3 -0.39 C 14.5 km/h
287 06-12-2013 00:20:00 3.1 C 5.33 g/m*3 0.87 C 8.1 km/h
288 06-12-2013 00:25:00 3.1 C 5.27 g/m*3 0.46 C 9.7 km/h
289 06-12-2013 00:30:00 3 C 5.29 g/m*3 -0.02 C 11.3 km/h
290 06-12-2013 00:35:00 3.1 C 5.33 g/m*3 -0.22 C 12.9 km/h
291 06-12-2013 00:40:00 3 C 5.35 g/m*3 -0.02 C 11.3 km/h
292 06-12-2013 00:45:00 3 C 5.35 g/m*3 3 C 4.8 km/h
293 06-12-2013 00:50:00 2.9 C 5.37 g/m*3 0.64 C 8.1 km/h
294 06-12-2013 00:55:00 2.9 C 5.32 g/m*3 0.64 C 8.1 km/h
295 06-12-2013 01:00:00 3.2 C 5.3 g/m*3 0.99 C 8.1 km/h
296 06-12-2013 01:05:00 3.4 C 5.31 g/m*3 3.4 C 4.8 km/h
297 06-12-2013 01:10:00 3.3 C 5.28 g/m*3 1.11 C 8.1 km/h
298 06-12-2013 01:15:00 3.3 C 5.22 g/m*3 0.7 C 9.7 km/h
299 06-12-2013 01:20:00 3.4 C 5.19 g/m*3 1.75 C 6.4 km/h
300 06-12-2013 01:25:00 3.3 C 5.16 g/m*3 0.02 C 12.9 km/h
Sensor: Nr:Datum:Temp:Abs-Feuchte:Windchill:Wind:
Aussen-T/F 301 06-12-2013 01:30:00 3.4 C 5.13 g/m*3 1.75 C 6.4 km/h
302 06-12-2013 01:35:00 3.6 C 5.08 g/m*3 1.98 C 6.4 km/h
303 06-12-2013 01:40:00 3.7 C 4.92 g/m*3 0.23 C 14.5 km/h
304 06-12-2013 01:45:00 3.8 C 4.89 g/m*3 0.63 C 12.9 km/h
305 06-12-2013 01:50:00 3.8 C 4.83 g/m*3 0.94 C 11.3 km/h
306 06-12-2013 01:55:00 3.8 C 4.77 g/m*3 1.7 C 8.1 km/h
307 06-12-2013 02:00:00 3.8 C 4.77 g/m*3 1.7 C 8.1 km/h
308 06-12-2013 02:05:00 3.8 C 4.77 g/m*3 1.29 C 9.7 km/h
309 06-12-2013 02:10:00 3.7 C 4.74 g/m*3 0.82 C 11.3 km/h
310 06-12-2013 02:15:00 3.7 C 4.74 g/m*3 0.51 C 12.9 km/h
311 06-12-2013 02:20:00 3.7 C 4.74 g/m*3 0.51 C 12.9 km/h
312 06-12-2013 02:25:00 3.8 C 4.71 g/m*3 0.63 C 12.9 km/h
313 06-12-2013 02:30:00 3.7 C 4.74 g/m*3 1.58 C 8.1 km/h
314 06-12-2013 02:35:00 3.7 C 4.74 g/m*3 0.23 C 14.5 km/h
315 06-12-2013 02:40:00 3.5 C 4.73 g/m*3 1.86 C 6.4 km/h
316 06-12-2013 02:45:00 3.3 C 4.67 g/m*3 0.34 C 11.3 km/h
317 06-12-2013 02:50:00 3.3 C 4.73 g/m*3 1.63 C 6.4 km/h
318 06-12-2013 02:55:00 3.3 C 4.73 g/m*3 0.7 C 9.7 km/h
319 06-12-2013 03:00:00 3.2 C 4.7 g/m*3 0.58 C 9.7 km/h
320 06-12-2013 03:05:00 3.3 C 4.67 g/m*3 1.11 C 8.1 km/h
321 06-12-2013 03:10:00 3.5 C 4.67 g/m*3 1.34 C 8.1 km/h
322 06-12-2013 03:15:00 3.4 C 4.64 g/m*3 1.23 C 8.1 km/h
323 06-12-2013 03:20:00 3.4 C 4.7 g/m*3 0.46 C 11.3 km/h
324 06-12-2013 03:25:00 3.5 C 4.73 g/m*3 0.58 C 11.3 km/h
325 06-12-2013 03:30:00 3.6 C 4.77 g/m*3 1.46 C 8.1 km/h
Sensor: Nr:Datum:Temp:Abs-Feuchte:Windchill:Wind:
Aussen-T/F 326 06-12-2013 03:35:00 3.6 C 4.77 g/m*3 1.98 C 6.4 km/h
327 06-12-2013 03:40:00 3.7 C 4.74 g/m*3 -0.03 C 16.1 km/h
328 06-12-2013 03:45:00 3.7 C 4.74 g/m*3 0.51 C 12.9 km/h
329 06-12-2013 03:50:00 3.8 C 4.71 g/m*3 0.1 C 16.1 km/h
330 06-12-2013 03:55:00 3.9 C 4.74 g/m*3 0.75 C 12.9 km/h
331 06-12-2013 04:00:00 3.9 C 4.74 g/m*3 -0.01 C 17.7 km/h
332 06-12-2013 04:05:00 4 C 4.77 g/m*3 1.53 C 9.7 km/h
333 06-12-2013 04:10:00 4 C 4.77 g/m*3 -0.11 C 19.3 km/h
334 06-12-2013 04:15:00 4.1 C 4.8 g/m*3 1 C 12.9 km/h
335 06-12-2013 04:20:00 4.2 C 4.77 g/m*3 1.12 C 12.9 km/h
336 06-12-2013 04:25:00 4.2 C 4.77 g/m*3 0.36 C 17.7 km/h
337 06-12-2013 04:30:00 4.3 C 4.8 g/m*3 0.97 C 14.5 km/h
338 06-12-2013 04:35:00 4.3 C 4.86 g/m*3 1.55 C 11.3 km/h
339 06-12-2013 04:40:00 4.2 C 4.83 g/m*3 0.59 C 16.1 km/h
340 06-12-2013 04:45:00 4.2 C 4.77 g/m*3 1.77 C 9.7 km/h
341 06-12-2013 04:50:00 4.2 C 4.77 g/m*3 1.12 C 12.9 km/h
342 06-12-2013 04:55:00 4.3 C 4.74 g/m*3 0.97 C 14.5 km/h
343 06-12-2013 05:00:00 4.4 C 4.7 g/m*3 0.84 C 16.1 km/h
344 06-12-2013 05:05:00 4.4 C 4.7 g/m*3 2.01 C 9.7 km/h
345 06-12-2013 05:10:00 4.4 C 4.77 g/m*3 1.67 C 11.3 km/h
346 06-12-2013 05:15:00 4.4 C 4.7 g/m*3 1.36 C 12.9 km/h
347 06-12-2013 05:20:00 4.4 C 4.64 g/m*3 0.61 C 17.7 km/h
348 06-12-2013 05:25:00 4.4 C 4.57 g/m*3 1.67 C 11.3 km/h
349 06-12-2013 05:30:00 4.5 C 4.67 g/m*3 0.96 C 16.1 km/h
350 06-12-2013 05:35:00 4.5 C 4.6 g/m*3 1.79 C 11.3 km/h
Sensor: Nr:Datum:Temp:Abs-Feuchte:Windchill:Wind:
Aussen-T/F 351 06-12-2013 05:40:00 4.6 C 4.57 g/m*3 -0.38 C 29 km/h
352 06-12-2013 05:45:00 4.6 C 4.57 g/m*3 1.09 C 16.1 km/h
353 06-12-2013 05:50:00 4.6 C 4.5 g/m*3 0.86 C 17.7 km/h
354 06-12-2013 05:55:00 4.6 C 4.43 g/m*3 1.09 C 16.1 km/h
355 06-12-2013 06:00:00 4.6 C 4.37 g/m*3 1.09 C 16.1 km/h
356 06-12-2013 06:05:00 4.6 C 4.37 g/m*3 1.09 C 16.1 km/h
357 06-12-2013 06:10:00 4.4 C 4.37 g/m*3 1.36 C 12.9 km/h
358 06-12-2013 06:15:00 4.4 C 4.44 g/m*3 2.01 C 9.7 km/h
359 06-12-2013 06:20:00 4.3 C 4.41 g/m*3 0.97 C 14.5 km/h
360 06-12-2013 06:25:00 4.4 C 4.51 g/m*3 1.36 C 12.9 km/h
361 06-12-2013 06:30:00 4.4 C 4.51 g/m*3 1.36 C 12.9 km/h
362 06-12-2013 06:35:00 4.4 C 4.64 g/m*3 0.84 C 16.1 km/h
363 06-12-2013 06:40:00 4.2 C 4.7 g/m*3 -0.24 C 22.5 km/h
364 06-12-2013 06:45:00 4.1 C 4.8 g/m*3 0.72 C 14.5 km/h
365 06-12-2013 06:50:00 3.9 C 4.8 g/m*3 -0.01 C 17.7 km/h
366 06-12-2013 06:55:00 3.7 C 4.86 g/m*3 -0.69 C 20.9 km/h
367 06-12-2013 07:00:00 3.6 C 4.89 g/m*3 -0.15 C 16.1 km/h
368 06-12-2013 07:05:00 3.4 C 4.83 g/m*3 -0.4 C 16.1 km/h
369 06-12-2013 07:10:00 3.3 C 4.79 g/m*3 -0.26 C 14.5 km/h
370 06-12-2013 07:15:00 3.4 C 4.83 g/m*3 0.46 C 11.3 km/h
371 06-12-2013 07:20:00 3.4 C 4.7 g/m*3 -0.4 C 16.1 km/h
372 06-12-2013 07:25:00 3.5 C 4.61 g/m*3 -0.28 C 16.1 km/h
373 06-12-2013 07:30:00 3.6 C 4.52 g/m*3 -0.15 C 16.1 km/h
374 06-12-2013 07:35:00 3.7 C 4.36 g/m*3 -0.03 C 16.1 km/h
375 06-12-2013 07:40:00 3.8 C 4.39 g/m*3 0.63 C 12.9 km/h
Sensor: Nr:Datum:Temp:Abs-Feuchte:Windchill:Wind:
Aussen-T/F 376 06-12-2013 07:45:00 3.9 C 4.36 g/m*3 0.75 C 12.9 km/h
377 06-12-2013 07:50:00 3.9 C 4.29 g/m*3 0.47 C 14.5 km/h
378 06-12-2013 07:55:00 3.8 C 4.33 g/m*3 -1.1 C 25.7 km/h
379 06-12-2013 08:00:00 3.8 C 4.33 g/m*3 1.29 C 9.7 km/h
380 06-12-2013 08:05:00 3.7 C 4.3 g/m*3 0.51 C 12.9 km/h
381 06-12-2013 08:10:00 3.7 C 4.3 g/m*3 1.18 C 9.7 km/h
382 06-12-2013 08:15:00 3.7 C 4.3 g/m*3 0.23 C 14.5 km/h
383 06-12-2013 08:20:00 3.7 C 4.36 g/m*3 0.51 C 12.9 km/h
384 06-12-2013 08:25:00 3.7 C 4.3 g/m*3 1.18 C 9.7 km/h
385 06-12-2013 08:30:00 3.7 C 4.3 g/m*3 0.51 C 12.9 km/h
386 06-12-2013 08:35:00 3.7 C 4.3 g/m*3 -0.03 C 16.1 km/h
387 06-12-2013 08:40:00 3.7 C 4.36 g/m*3 -0.26 C 17.7 km/h
388 06-12-2013 08:45:00 3.6 C 4.33 g/m*3 1.06 C 9.7 km/h
389 06-12-2013 08:50:00 3.6 C 4.33 g/m*3 0.39 C 12.9 km/h
390 06-12-2013 08:55:00 3.6 C 4.33 g/m*3 0.7 C 11.3 km/h
391 06-12-2013 09:00:00 3.7 C 4.36 g/m*3 -0.03 C 16.1 km/h
392 06-12-2013 09:05:00 3.7 C 4.3 g/m*3 0.23 C 14.5 km/h
393 06-12-2013 09:10:00 3.7 C 4.3 g/m*3 0.51 C 12.9 km/h
394 06-12-2013 09:15:00 3.8 C 4.33 g/m*3 -0.14 C 17.7 km/h
395 06-12-2013 09:20:00 3.8 C 4.33 g/m*3 -0.14 C 17.7 km/h
396 06-12-2013 09:25:00 3.8 C 4.33 g/m*3 -0.36 C 19.3 km/h
397 06-12-2013 09:30:00 3.8 C 4.33 g/m*3 -0.14 C 17.7 km/h
398 06-12-2013 09:35:00 3.9 C 4.36 g/m*3 0.75 C 12.9 km/h
399 06-12-2013 09:40:00 3.9 C 4.29 g/m*3 0.75 C 12.9 km/h
400 06-12-2013 09:45:00 4 C 4.32 g/m*3 0.34 C 16.1 km/h
Sensor: Nr:Datum:Temp:Abs-Feuchte:Windchill:Wind:
Aussen-T/F 401 06-12-2013 09:50:00 4 C 4.32 g/m*3 0.11 C 17.7 km/h
402 06-12-2013 09:55:00 4.1 C 4.35 g/m*3 0.24 C 17.7 km/h
403 06-12-2013 10:00:00 4.2 C 4.38 g/m*3 0.15 C 19.3 km/h
404 06-12-2013 10:05:00 4.2 C 4.38 g/m*3 0.84 C 14.5 km/h
405 06-12-2013 10:10:00 4.2 C 4.38 g/m*3 0.59 C 16.1 km/h
406 06-12-2013 10:15:00 4.3 C 4.35 g/m*3 -0.77 C 29 km/h
407 06-12-2013 10:20:00 4.3 C 4.41 g/m*3 0.72 C 16.1 km/h
408 06-12-2013 10:25:00 4.3 C 4.35 g/m*3 0.49 C 17.7 km/h
409 06-12-2013 10:30:00 4.3 C 4.41 g/m*3 0.27 C 19.3 km/h
410 06-12-2013 10:35:00 4.3 C 4.35 g/m*3 0.27 C 19.3 km/h
411 06-12-2013 10:40:00 4.3 C 4.35 g/m*3 -0.11 C 22.5 km/h
412 06-12-2013 10:45:00 4.4 C 4.37 g/m*3 0.61 C 17.7 km/h
413 06-12-2013 10:50:00 4.3 C 4.35 g/m*3 0.49 C 17.7 km/h
414 06-12-2013 10:55:00 4.3 C 4.35 g/m*3 0.72 C 16.1 km/h
415 06-12-2013 11:00:00 4.3 C 4.35 g/m*3 0.49 C 17.7 km/h
416 06-12-2013 11:05:00 4.4 C 4.37 g/m*3 0.84 C 16.1 km/h
417 06-12-2013 11:10:00 4.4 C 4.37 g/m*3 0.4 C 19.3 km/h
418 06-12-2013 11:15:00 4.4 C 4.37 g/m*3 0.84 C 16.1 km/h
419 06-12-2013 11:20:00 4.4 C 4.37 g/m*3 0.61 C 17.7 km/h
420 06-12-2013 11:25:00 4.6 C 4.43 g/m*3 0.86 C 17.7 km/h
421 06-12-2013 11:30:00 4.6 C 4.43 g/m*3 1.34 C 14.5 km/h
422 06-12-2013 11:35:00 4.7 C 4.4 g/m*3 1.46 C 14.5 km/h
423 06-12-2013 11:40:00 4.7 C 4.4 g/m*3 1.46 C 14.5 km/h
424 06-12-2013 11:45:00 4.7 C 4.4 g/m*3 0.58 C 20.9 km/h
425 06-12-2013 11:50:00 4.7 C 4.4 g/m*3 0.78 C 19.3 km/h
Sensor: Nr:Datum:Temp:Abs-Feuchte:Windchill:Wind:
Aussen-T/F 426 06-12-2013 11:55:00 4.6 C 4.43 g/m*3 1.34 C 14.5 km/h
427 06-12-2013 12:00:00 4.6 C 4.43 g/m*3 1.34 C 14.5 km/h
428 06-12-2013 12:05:00 4.7 C 4.53 g/m*3 0.99 C 17.7 km/h
429 06-12-2013 12:10:00 4.7 C 4.53 g/m*3 1.21 C 16.1 km/h
430 06-12-2013 12:15:00 4.7 C 4.53 g/m*3 2.76 C 8.1 km/h
431 06-12-2013 12:20:00 4.7 C 4.46 g/m*3 1.21 C 16.1 km/h
432 06-12-2013 12:25:00 4.7 C 4.4 g/m*3 1.21 C 16.1 km/h
433 06-12-2013 12:30:00 4.7 C 4.46 g/m*3 0.58 C 20.9 km/h
434 06-12-2013 12:35:00 4.8 C 4.43 g/m*3 0.71 C 20.9 km/h
435 06-12-2013 12:40:00 4.7 C 4.4 g/m*3 0.06 C 25.7 km/h
436 06-12-2013 12:45:00 4.8 C 4.43 g/m*3 0.19 C 25.7 km/h
437 06-12-2013 12:50:00 4.8 C 4.43 g/m*3 0.9 C 19.3 km/h
438 06-12-2013 12:55:00 4.8 C 4.29 g/m*3 0.9 C 19.3 km/h
439 06-12-2013 13:00:00 4.8 C 4.29 g/m*3 0.52 C 22.5 km/h
440 06-12-2013 13:05:00 4.9 C 4.32 g/m*3 0.83 C 20.9 km/h
441 06-12-2013 13:10:00 4.9 C 4.32 g/m*3 1.24 C 17.7 km/h
442 06-12-2013 13:15:00 4.9 C 4.25 g/m*3 1.24 C 17.7 km/h
443 06-12-2013 13:20:00 4.9 C 4.25 g/m*3 1.03 C 19.3 km/h
444 06-12-2013 13:25:00 4.9 C 4.25 g/m*3 1.24 C 17.7 km/h
445 06-12-2013 13:30:00 4.9 C 4.25 g/m*3 0.83 C 20.9 km/h
446 06-12-2013 13:35:00 4.9 C 4.32 g/m*3 0.83 C 20.9 km/h
447 06-12-2013 13:40:00 4.9 C 4.32 g/m*3 0.83 C 20.9 km/h
448 06-12-2013 13:45:00 4.9 C 4.32 g/m*3 0.83 C 20.9 km/h
449 06-12-2013 13:50:00 4.9 C 4.32 g/m*3 0.83 C 20.9 km/h
450 06-12-2013 13:55:00 4.9 C 4.32 g/m*3 0.65 C 22.5 km/h
Sensor: Nr:Datum:Temp:Abs-Feuchte:Windchill:Wind:
Aussen-T/F 451 06-12-2013 14:00:00 4.9 C 4.25 g/m*3 0.65 C 22.5 km/h
452 06-12-2013 14:05:00 4.9 C 4.32 g/m*3 0.15 C 27.4 km/h
453 06-12-2013 14:10:00 4.9 C 4.32 g/m*3 1.24 C 17.7 km/h
454 06-12-2013 14:15:00 4.9 C 4.32 g/m*3 0.83 C 20.9 km/h
455 06-12-2013 14:20:00 4.9 C 4.32 g/m*3 1.24 C 17.7 km/h
456 06-12-2013 14:25:00 4.9 C 4.25 g/m*3 1.03 C 19.3 km/h
457 06-12-2013 14:30:00 4.9 C 4.25 g/m*3 0.32 C 25.7 km/h
458 06-12-2013 14:35:00 4.9 C 4.25 g/m*3 1.03 C 19.3 km/h
459 06-12-2013 14:40:00 4.9 C 4.25 g/m*3 2.27 C 11.3 km/h
460 06-12-2013 14:45:00 4.9 C 4.25 g/m*3 1.03 C 19.3 km/h
461 06-12-2013 14:50:00 4.8 C 4.22 g/m*3 1.34 C 16.1 km/h
462 06-12-2013 14:55:00 4.8 C 4.22 g/m*3 1.11 C 17.7 km/h
463 06-12-2013 15:00:00 4.8 C 4.22 g/m*3 1.34 C 16.1 km/h
464 06-12-2013 15:05:00 4.7 C 4.26 g/m*3 0.4 C 22.5 km/h
465 06-12-2013 15:10:00 4.7 C 4.33 g/m*3 0.99 C 17.7 km/h
466 06-12-2013 15:15:00 4.6 C 4.3 g/m*3 1.34 C 14.5 km/h
467 06-12-2013 15:20:00 4.6 C 4.3 g/m*3 0.27 C 22.5 km/h
468 06-12-2013 15:25:00 4.6 C 4.3 g/m*3 0.27 C 22.5 km/h
469 06-12-2013 15:30:00 4.6 C 4.37 g/m*3 1.09 C 16.1 km/h
470 06-12-2013 15:35:00 4.6 C 4.37 g/m*3 1.34 C 14.5 km/h
471 06-12-2013 15:40:00 4.6 C 4.37 g/m*3 1.09 C 16.1 km/h
472 06-12-2013 15:45:00 4.5 C 4.34 g/m*3 0.52 C 19.3 km/h
473 06-12-2013 15:50:00 4.5 C 4.34 g/m*3 1.79 C 11.3 km/h
474 06-12-2013 15:55:00 4.4 C 4.31 g/m*3 1.36 C 12.9 km/h
475 06-12-2013 16:00:00 4.4 C 4.31 g/m*3 -0.16 C 24.1 km/h
Sensor: Nr:Datum:Temp:Abs-Feuchte:Windchill:Wind:
Aussen-T/F 476 06-12-2013 16:05:00 4.4 C 4.31 g/m*3 0.84 C 16.1 km/h
477 06-12-2013 16:10:00 4.4 C 4.31 g/m*3 1.67 C 11.3 km/h
478 06-12-2013 16:15:00 4.4 C 4.44 g/m*3 0.01 C 22.5 km/h
479 06-12-2013 16:20:00 4.3 C 4.41 g/m*3 1.24 C 12.9 km/h
480 06-12-2013 16:25:00 4.2 C 4.45 g/m*3 0.59 C 16.1 km/h
481 06-12-2013 16:30:00 4.2 C 4.51 g/m*3 1.43 C 11.3 km/h
482 06-12-2013 16:35:00 4.2 C 4.57 g/m*3 1.43 C 11.3 km/h
483 06-12-2013 16:40:00 4.1 C 4.54 g/m*3 1 C 12.9 km/h
484 06-12-2013 16:45:00 4.1 C 4.54 g/m*3 2.05 C 8.1 km/h
485 06-12-2013 16:50:00 4.1 C 4.61 g/m*3 2.05 C 8.1 km/h
486 06-12-2013 16:55:00 3.9 C 4.74 g/m*3 1.82 C 8.1 km/h
487 06-12-2013 17:00:00 3.7 C 4.86 g/m*3 0.82 C 11.3 km/h
488 06-12-2013 17:05:00 3.5 C 4.92 g/m*3 1.86 C 6.4 km/h
489 06-12-2013 17:10:00 3.3 C 4.97 g/m*3 3.3 C 4.8 km/h
490 06-12-2013 17:15:00 3.2 C 5 g/m*3 1.51 C 6.4 km/h
491 06-12-2013 17:20:00 3 C 4.99 g/m*3 -0.34 C 12.9 km/h
492 06-12-2013 17:25:00 2.8 C 4.99 g/m*3 1.05 C 6.4 km/h
493 06-12-2013 17:30:00 2.7 C 5.01 g/m*3 -0.02 C 9.7 km/h
494 06-12-2013 17:35:00 2.5 C 5 g/m*3 -0.26 C 9.7 km/h
495 06-12-2013 17:40:00 2.4 C 5.02 g/m*3 0.59 C 6.4 km/h
496 06-12-2013 17:45:00 2.3 C 5.05 g/m*3 2.3 C 4.8 km/h
497 06-12-2013 17:50:00 2.3 C 5.05 g/m*3 0.47 C 6.4 km/h
498 06-12-2013 17:55:00 2.3 C 5.05 g/m*3 -0.07 C 8.1 km/h
499 06-12-2013 18:00:00 2.3 C 5.05 g/m*3 -0.49 C 9.7 km/h
500 06-12-2013 18:05:00 2.2 C 5.01 g/m*3 -0.18 C 8.1 km/h
Sensor: Nr:Datum:Temp:Abs-Feuchte:Windchill:Wind:
Aussen-T/F 501 06-12-2013 18:10:00 2.2 C 5.07 g/m*3 2.2 C 4.8 km/h
502 06-12-2013 18:15:00 2.2 C 5.07 g/m*3 0.36 C 6.4 km/h
503 06-12-2013 18:20:00 2.2 C 5.07 g/m*3 -0.18 C 8.1 km/h
504 06-12-2013 18:25:00 2.2 C 5.07 g/m*3 -0.99 C 11.3 km/h
505 06-12-2013 18:30:00 2.3 C 5.1 g/m*3 -0.87 C 11.3 km/h
506 06-12-2013 18:35:00 2.3 C 5.05 g/m*3 -0.87 C 11.3 km/h
507 06-12-2013 18:40:00 2.3 C 5.1 g/m*3 -0.49 C 9.7 km/h
508 06-12-2013 18:45:00 2.2 C 5.07 g/m*3 -0.18 C 8.1 km/h
509 06-12-2013 18:50:00 2.2 C 5.07 g/m*3 -0.18 C 8.1 km/h
510 06-12-2013 18:55:00 2.2 C 5.07 g/m*3 -0.61 C 9.7 km/h
511 06-12-2013 19:00:00 2.2 C 5.07 g/m*3 0.36 C 6.4 km/h
512 06-12-2013 19:05:00 2.3 C 5.05 g/m*3 0.47 C 6.4 km/h
513 06-12-2013 19:10:00 2.3 C 5.05 g/m*3 -0.49 C 9.7 km/h
514 06-12-2013 19:15:00 2.4 C 5.02 g/m*3 -0.37 C 9.7 km/h
515 06-12-2013 19:20:00 2.5 C 5 g/m*3 0.71 C 6.4 km/h
516 06-12-2013 19:25:00 2.5 C 5.06 g/m*3 2.5 C 4.8 km/h
517 06-12-2013 19:30:00 2.4 C 5.08 g/m*3 0.05 C 8.1 km/h
518 06-12-2013 19:35:00 2.3 C 5.05 g/m*3 0.47 C 6.4 km/h
519 06-12-2013 19:40:00 2.4 C 5.08 g/m*3 2.4 C 4.8 km/h
520 06-12-2013 19:45:00 2.4 C 5.02 g/m*3 0.05 C 8.1 km/h
521 06-12-2013 19:50:00 2.5 C 5.06 g/m*3 0.17 C 8.1 km/h
522 06-12-2013 19:55:00 2.6 C 5.03 g/m*3 0.82 C 6.4 km/h
523 06-12-2013 20:00:00 2.6 C 5.03 g/m*3 0.82 C 6.4 km/h
524 06-12-2013 20:05:00 2.7 C 5.07 g/m*3 2.7 C 4.8 km/h
525 06-12-2013 20:10:00 2.7 C 5.07 g/m*3 0.94 C 6.4 km/h
Sensor: Nr:Datum:Temp:Abs-Feuchte:Windchill:Wind:
Aussen-T/F 526 06-12-2013 20:15:00 2.7 C 5.07 g/m*3 2.7 C 4.8 km/h
527 06-12-2013 20:20:00 2.6 C 5.03 g/m*3 -0.83 C 12.9 km/h
528 06-12-2013 20:25:00 2.6 C 5.03 g/m*3 0.82 C 6.4 km/h
529 06-12-2013 20:30:00 2.6 C 5.03 g/m*3 0.82 C 6.4 km/h
530 06-12-2013 20:35:00 2.7 C 5.01 g/m*3 -1 C 14.5 km/h
531 06-12-2013 20:40:00 2.8 C 4.99 g/m*3 0.1 C 9.7 km/h
532 06-12-2013 20:45:00 2.8 C 4.93 g/m*3 0.1 C 9.7 km/h
533 06-12-2013 20:50:00 2.9 C 4.9 g/m*3 -0.46 C 12.9 km/h
534 06-12-2013 20:55:00 3 C 4.93 g/m*3 -0.02 C 11.3 km/h
535 06-12-2013 21:00:00 3.1 C 4.91 g/m*3 0.1 C 11.3 km/h
536 06-12-2013 21:05:00 3.1 C 4.91 g/m*3 -0.22 C 12.9 km/h
537 06-12-2013 21:10:00 3.2 C 4.94 g/m*3 -0.1 C 12.9 km/h
538 06-12-2013 21:15:00 3.2 C 4.88 g/m*3 -0.1 C 12.9 km/h
539 06-12-2013 21:20:00 3.2 C 4.88 g/m*3 -0.39 C 14.5 km/h
540 06-12-2013 21:25:00 3.2 C 4.88 g/m*3 0.58 C 9.7 km/h
541 06-12-2013 21:30:00 3.2 C 4.82 g/m*3 0.58 C 9.7 km/h
542 06-12-2013 21:35:00 3.3 C 4.79 g/m*3 0.34 C 11.3 km/h
543 06-12-2013 21:40:00 3.3 C 4.79 g/m*3 0.34 C 11.3 km/h
544 06-12-2013 21:45:00 3.3 C 4.79 g/m*3 0.34 C 11.3 km/h
545 06-12-2013 21:50:00 3.3 C 4.79 g/m*3 1.11 C 8.1 km/h
546 06-12-2013 21:55:00 3.3 C 4.79 g/m*3 -0.26 C 14.5 km/h
547 06-12-2013 22:00:00 3.3 C 4.79 g/m*3 0.7 C 9.7 km/h
548 06-12-2013 22:05:00 3.3 C 4.73 g/m*3 1.11 C 8.1 km/h
549 06-12-2013 22:10:00 3.3 C 4.73 g/m*3 0.34 C 11.3 km/h
550 06-12-2013 22:15:00 3.3 C 4.73 g/m*3 0.34 C 11.3 km/h
Sensor: Nr:Datum:Temp:Abs-Feuchte:Windchill:Wind:
Aussen-T/F 551 06-12-2013 22:20:00 3.3 C 4.73 g/m*3 1.63 C 6.4 km/h
552 06-12-2013 22:25:00 3.3 C 4.79 g/m*3 0.02 C 12.9 km/h
553 06-12-2013 22:30:00 3.3 C 4.73 g/m*3 0.02 C 12.9 km/h
554 06-12-2013 22:35:00 3.4 C 4.7 g/m*3 0.82 C 9.7 km/h
555 06-12-2013 22:40:00 3.6 C 4.77 g/m*3 1.06 C 9.7 km/h
556 06-12-2013 22:45:00 3.6 C 4.7 g/m*3 1.46 C 8.1 km/h
557 06-12-2013 22:50:00 3.6 C 4.7 g/m*3 0.39 C 12.9 km/h
558 06-12-2013 22:55:00 3.7 C 4.74 g/m*3 -0.03 C 16.1 km/h
559 06-12-2013 23:00:00 3.7 C 4.74 g/m*3 0.51 C 12.9 km/h
560 06-12-2013 23:05:00 3.6 C 4.77 g/m*3 0.7 C 11.3 km/h
561 06-12-2013 23:10:00 3.6 C 4.77 g/m*3 0.39 C 12.9 km/h
562 06-12-2013 23:15:00 3.7 C 4.8 g/m*3 0.82 C 11.3 km/h
563 06-12-2013 23:20:00 3.7 C 4.8 g/m*3 0.82 C 11.3 km/h
564 06-12-2013 23:25:00 3.6 C 4.77 g/m*3 0.11 C 14.5 km/h
565 06-12-2013 23:30:00 3.5 C 4.73 g/m*3 0.27 C 12.9 km/h
566 06-12-2013 23:35:00 3.4 C 4.76 g/m*3 0.14 C 12.9 km/h
567 06-12-2013 23:40:00 3.3 C 4.73 g/m*3 0.02 C 12.9 km/h
568 06-12-2013 23:45:00 3.3 C 4.73 g/m*3 0.02 C 12.9 km/h
569 06-12-2013 23:50:00 3.3 C 4.79 g/m*3 -0.52 C 16.1 km/h
570 06-12-2013 23:55:00 3.3 C 4.79 g/m*3 0.34 C 11.3 km/h

Legende:
   Min
   Max


Maximal/Minimal-Werte vom 05.12.2013 - 06.12.2013

Sensor Min Max Avg
Temp
(Aussen-T/F)
1.2 °C
05-12-2013  08:25:00
7.6 °C
05-12-2013  21:35:00
3.85 °C
Abs-Feuchte
(Aussen-T/F)
4.22 g/m*3
06-12-2013  14:50:00
6.48 g/m*3
05-12-2013  00:00:00
5.09 g/m*3
Windchill
(Aussen-T/F)
-1.45 C
05-12-2013  23:45:00
4.9 C
05-12-2013  00:00:00
0.96 C

Die Daten stammen von einer Davis Vantage Pro 2 Wetter-Station und werden unter Linux mit der Software wview2wettercgi und aufbereitet. Alle Angaben erfolgen ohne Gewähr für ihre Vollständigkeit oder Richtigkeit.
Kontakt: Rainer Krienke krienke@uni-koblenz.de . Meine Webseiten an der Uni Koblenz oder privat.
Version: $Revision: 0.78 $